Latest Weather Observations for Townsville

IDQ60801

Issued at 1:05 pm EST Wednesday 26 November 2014 (issued every 30 minutes, with the page automatically refreshed every 10 minutes)

About weather observations | Map of weather stations | Latest weather observations for QLD | Other Formats
Station Details ID: 032040 Name: TOWNSVILLE AERO Lat: -19.25 Lon: 146.77 Height: 4.34 m
Data from the previous 72 hours. | See also: Recent months at Townsville
Date/Time
EST
Temp
°C
App
Temp
°C
Dew
Point
Rel
Hum
%
Delta-T
°C
Wind Press
QNH
hPa
Press
MSL
hPa
Rain
since 9 am
mm
Dir
 
Spd
km/h
Gust
km/h
Spd
kts
Gust
kts
26/01:00pm 29.8 28.6 22.3 64 5.1 ENE 32 37 17 20 1011.5 - 0.4
26/12:30pm 30.3 29.6 22.5 63 5.3 ENE 30 37 16 20 1011.9 - 0.4
26/12:00pm 30.8 29.8 22.6 61 5.6 ENE 32 37 17 20 1012.0 1011.9 0.4
26/11:30am 29.8 28.4 22.3 64 5.1 ENE 33 43 18 23 1012.3 - 0.4
26/11:00am 30.2 29.3 22.9 65 5.0 ENE 32 39 17 21 1012.4 - 0.4
26/10:30am 30.4 29.2 22.3 62 5.5 ENE 32 41 17 22 1012.6 - 0.2
26/10:00am 29.2 29.0 23.4 71 4.0 ENE 30 37 16 20 1012.8 - 0.2
26/09:27am 28.3 30.3 23.6 75 3.2 ENE 19 26 10 14 1012.7 - 0.2
26/09:00am 27.8 29.3 23.7 78 2.8 E 22 32 12 17 1012.8 1012.7 1.4
26/08:30am 28.2 29.6 22.9 73 3.6 ESE 20 28 11 15 1012.6 - 1.4
26/08:00am 27.7 28.2 22.7 74 3.4 ESE 24 32 13 17 1012.6 - 1.4
26/07:30am 27.4 29.3 22.7 75 3.2 SE 17 22 9 12 1012.4 - 1.4
26/07:00am 27.4 29.7 22.8 76 3.1 SE 15 19 8 10 1012.3 - 1.4
26/06:30am 26.3 28.7 22.9 81 2.3 SE 15 19 8 10 1012.1 - 1.4
26/06:00am 25.7 28.2 23.2 86 1.7 SE 15 19 8 10 1011.7 1011.6 1.4
26/05:30am 25.5 28.4 23.1 86 1.6 SSE 13 20 7 11 1011.2 - 1.4
26/05:00am 25.9 28.4 23.1 84 1.9 SE 15 19 8 10 1010.9 - 1.4
26/04:30am 25.6 28.1 23.2 86 1.6 SE 15 17 8 9 1010.5 - 1.4
26/04:00am 26.0 28.9 23.1 84 2.0 SE 13 19 7 10 1010.4 - 1.4
26/03:30am 26.0 28.9 23.1 84 2.0 E 13 17 7 9 1010.4 - 1.4
26/03:00am 26.0 28.2 22.6 81 2.3 E 15 22 8 12 1010.4 1010.3 1.4
26/02:30am 26.0 27.6 22.9 83 2.1 E 19 28 10 15 1010.6 - 1.4
26/02:00am 26.2 27.8 22.8 81 2.3 E 19 28 10 15 1010.8 - 1.4
26/01:30am 26.2 28.0 23.6 85 1.8 E 20 26 11 14 1010.8 - 1.4
26/01:12am 26.1 27.5 23.6 86 1.7 E 22 26 12 14 1010.8 - 1.4
26/01:00am 25.9 29.5 23.7 88 1.5 SE 11 15 6 8 1010.9 - 1.4
26/12:30am 25.2 27.5 22.7 86 1.7 SSE 15 19 8 10 1011.3 - 1.4
26/12:22am 25.6 28.4 23.7 89 1.3 ESE 15 20 8 11 1011.5 - 1.4
26/12:07am 25.6 29.0 24.0 91 1.1 ENE 13 22 7 12 1011.5 - 1.4
26/12:00am 25.5 28.9 23.4 88 1.4 E 11 15 6 8 1011.7 1011.6 0.2
 
Date/Time
EST
Temp
°C
App
Temp
°C
Dew
Point
Rel
Hum
%
Delta-T
°C
Wind Press
QNH
hPa
Press
MSL
hPa
Rain
since 9 am
mm
Dir
 
Spd
km/h
Gust
km/h
Spd
kts
Gust
kts
25/11:30pm 26.2 26.7 22.0 77 2.8 ENE 22 30 12 16 1012.1 - 0.0
25/11:00pm 27.1 29.4 22.7 77 3.0 ENE 15 19 8 10 1012.3 - 0.0
25/10:30pm 27.1 29.6 22.5 76 3.1 E 13 19 7 10 1012.5 - 0.0
25/10:00pm 27.2 28.8 22.1 73 3.4 ENE 17 22 9 12 1012.5 - 0.0
25/09:30pm 27.2 28.9 21.7 72 3.7 ENE 15 19 8 10 1012.5 - 0.0
25/09:00pm 27.2 29.1 22.0 73 3.5 E 15 19 8 10 1012.4 1012.3 0.0
25/08:30pm 27.1 28.4 21.7 72 3.6 E 17 24 9 13 1012.2 - 0.0
25/08:00pm 26.8 27.7 21.9 74 3.3 E 20 28 11 15 1011.8 - 0.0
25/07:30pm 26.8 28.6 21.9 74 3.3 ENE 15 20 8 11 1011.6 - 0.0
25/07:00pm 26.8 28.2 21.9 74 3.3 ENE 17 26 9 14 1011.3 - 0.0
25/06:30pm 27.0 28.2 21.4 71 3.7 ENE 17 26 9 14 1010.9 - 0.0
25/06:00pm 27.7 27.9 21.4 68 4.2 ENE 22 30 12 16 1010.6 1010.5 0.0
25/05:30pm 28.2 27.5 21.0 65 4.8 ENE 26 30 14 16 1010.4 - 0.0
25/05:00pm 28.6 28.3 21.1 64 5.0 ENE 24 32 13 17 1010.2 - 0.0
25/04:30pm 29.0 28.8 21.2 62 5.2 NE 24 32 13 17 1010.2 - 0.0
25/04:00pm 29.0 28.2 20.9 61 5.4 NE 26 33 14 18 1010.2 - 0.0
25/03:30pm 30.0 28.9 21.0 58 6.0 ENE 28 37 15 20 1010.3 - 0.0
25/03:00pm 30.0 28.0 20.8 57 6.1 ENE 32 41 17 22 1010.5 1010.4 0.0
25/02:30pm 30.7 28.1 20.6 54 6.7 ENE 35 43 19 23 1010.7 - 0.0
25/02:00pm 30.5 28.4 20.6 55 6.6 NE 32 37 17 20 1011.1 - 0.0
25/01:30pm 30.4 28.8 20.8 56 6.4 ENE 30 39 16 21 1011.4 - 0.0
25/01:00pm 30.5 29.0 21.8 59 5.9 NE 32 39 17 21 1011.6 - 0.0
25/12:30pm 30.6 29.5 21.7 59 6.0 NE 30 35 16 19 1011.8 - 0.0
25/12:00pm 30.7 30.4 21.8 59 6.0 ENE 26 32 14 17 1012.1 1012.0 0.0
25/11:30am 30.1 29.6 21.5 60 5.8 ENE 26 32 14 17 1012.3 - 0.0
25/11:00am 29.1 29.1 21.6 64 5.0 ENE 24 32 13 17 1012.7 - 0.0
25/10:30am 30.1 30.4 21.5 60 5.8 NE 22 32 12 17 1012.9 - 0.0
25/10:00am 29.6 30.2 21.4 61 5.5 ENE 20 30 11 16 1013.1 - 0.0
25/09:30am 29.4 29.0 21.0 60 5.6 E 24 28 13 15 1013.2 - 0.0
25/09:00am 28.7 29.2 21.2 64 5.0 ENE 20 28 11 15 1013.1 1013.0 2.4
25/08:30am 28.6 29.0 20.6 62 5.3 ENE 19 24 10 13 1013.1 - 2.4
25/08:00am 28.7 29.7 21.7 66 4.7 E 19 24 10 13 1013.1 - 2.4
25/07:30am 28.1 29.1 21.0 65 4.7 ENE 17 24 9 13 1012.9 - 2.4
25/07:00am 27.6 29.3 21.6 70 4.0 E 15 22 8 12 1012.7 - 2.4
25/06:30am 26.5 29.5 21.9 76 3.1 SSE 9 15 5 8 1012.4 - 2.4
25/06:00am 24.7 28.0 21.4 82 2.2 N 6 9 3 5 1012.0 1011.9 2.4
25/05:30am 25.4 27.9 21.0 76 2.9 ENE 9 13 5 7 1011.9 - 2.4
25/05:00am 25.2 26.9 20.9 77 2.8 ENE 13 15 7 8 1011.7 - 2.4
25/04:30am 25.6 27.6 21.5 78 2.7 E 13 17 7 9 1011.5 - 2.4
25/04:00am 25.7 28.2 21.8 79 2.6 ENE 11 17 6 9 1011.2 - 2.4
25/03:30am 25.4 26.5 21.2 77 2.8 NE 17 19 9 10 1011.3 - 2.4
25/03:00am 25.7 26.8 21.3 76 2.9 ENE 17 22 9 12 1011.3 1011.2 2.4
25/02:30am 25.7 27.0 21.6 78 2.7 ENE 17 26 9 14 1011.5 - 2.4
25/02:00am 25.8 27.0 21.4 76 2.9 ENE 17 26 9 14 1011.7 - 2.4
25/01:30am 25.6 26.4 21.4 77 2.8 ENE 19 22 10 12 1012.0 - 2.4
25/01:00am 25.8 27.4 22.1 80 2.5 ENE 17 24 9 13 1012.4 - 2.4
25/12:30am 25.9 27.3 22.5 81 2.3 ENE 19 28 10 15 1012.9 - 2.4
25/12:00am 26.0 27.8 22.6 81 2.3 ENE 17 22 9 12 1013.4 1013.3 2.4
 
Date/Time
EST
Temp
°C
App
Temp
°C
Dew
Point
Rel
Hum
%
Delta-T
°C
Wind Press
QNH
hPa
Press
MSL
hPa
Rain
since 9 am
mm
Dir
 
Spd
km/h
Gust
km/h
Spd
kts
Gust
kts
24/11:35pm 25.9 27.3 22.8 83 2.1 ENE 20 26 11 14 1013.5 - 2.4
24/11:30pm 25.7 29.2 22.9 84 1.9 NNE 9 26 5 14 1013.5 - 2.4
24/11:15pm 25.1 26.1 22.1 83 2.0 NE 20 44 11 24 1013.7 - 2.0
24/11:00pm 27.0 28.6 22.2 75 3.2 NE 17 24 9 13 1013.5 - 0.0
24/10:30pm 26.8 27.6 21.7 73 3.4 NE 20 26 11 14 1013.5 - 0.0
24/10:00pm 27.0 27.0 20.9 69 4.0 NE 22 28 12 15 1013.6 - 0.0
24/09:30pm 27.2 28.1 22.0 73 3.5 NE 20 26 11 14 1013.5 - 0.0
24/09:00pm 27.1 28.7 22.2 74 3.3 NE 17 24 9 13 1013.2 1013.1 0.0
24/08:30pm 27.1 28.0 21.9 73 3.5 NE 20 28 11 15 1013.0 - 0.0
24/08:00pm 27.2 27.6 21.8 72 3.6 NE 22 26 12 14 1012.8 - 0.0
24/07:30pm 27.2 28.1 21.5 71 3.8 NE 19 26 10 14 1012.5 - 0.0
24/07:00pm 27.3 27.5 21.4 70 3.9 ENE 22 30 12 16 1012.0 - 0.0
24/06:30pm 27.5 27.3 22.0 72 3.7 NE 26 32 14 17 1011.7 - 0.0
24/06:00pm 27.9 28.1 22.1 70 3.9 ENE 24 30 13 16 1011.4 1011.3 0.0
24/05:30pm 28.7 27.6 21.0 63 5.1 ENE 28 33 15 18 1011.0 - 0.0
24/05:00pm 29.2 28.7 21.4 63 5.2 NE 26 33 14 18 1010.9 - 0.0
24/04:30pm 28.8 28.0 21.6 65 4.8 ENE 28 35 15 19 1010.8 - 0.0
24/04:00pm 29.6 28.0 21.6 62 5.4 ENE 32 37 17 20 1010.7 - 0.0
24/03:30pm 29.8 28.0 21.6 61 5.5 ENE 33 39 18 21 1011.0 - 0.0
24/03:00pm 30.8 29.1 21.4 57 6.3 ENE 32 37 17 20 1011.3 1011.2 0.0
24/02:30pm 30.4 29.1 22.1 61 5.6 NE 32 37 17 20 1011.6 - 0.0
24/02:00pm 31.2 29.8 21.9 57 6.3 ENE 32 41 17 22 1011.9 - 0.0
24/01:30pm 30.5 29.0 21.8 59 5.9 ENE 32 39 17 21 1012.1 - 0.0
24/01:00pm 30.6 29.1 21.7 59 6.0 NE 32 41 17 22 1012.5 - 0.0
24/12:30pm 31.4 30.4 22.0 57 6.4 ENE 30 37 16 20 1012.7 - 0.0
24/12:00pm 30.4 28.8 21.6 59 5.9 NE 32 37 17 20 1013.0 1012.9 0.0
24/11:30am 30.6 29.6 21.9 59 5.9 ENE 30 41 16 22 1013.4 - 0.0
24/11:00am 30.4 29.5 21.5 59 6.0 ENE 28 35 15 19 1013.8 - 0.0
24/10:30am 30.7 30.0 21.8 59 6.0 ENE 28 37 15 20 1013.9 - 0.0
24/10:00am 30.4 29.8 22.0 60 5.7 ENE 28 37 15 20 1014.1 - 0.0
24/09:30am 30.6 29.8 21.7 59 6.0 ENE 28 33 15 18 1014.2 - 0.0
24/09:00am 30.1 29.2 21.5 60 5.8 E 28 35 15 19 1014.3 1014.2 0.2
24/08:30am 28.5 28.5 22.4 69 4.1 ENE 26 33 14 18 1014.2 - 0.2
24/08:00am 28.9 29.1 22.1 66 4.6 E 24 30 13 16 1013.9 - 0.2
24/07:30am 29.0 29.4 22.4 67 4.5 E 24 30 13 16 1013.8 - 0.2
24/07:00am 27.3 27.7 22.4 74 3.3 E 24 30 13 16 1013.6 - 0.2
24/06:30am 26.8 28.7 22.7 78 2.8 E 17 22 9 12 1013.3 - 0.2
24/06:00am 25.7 27.5 23.2 86 1.7 E 19 28 10 15 1012.8 1012.7 0.2
24/05:38am 25.3 27.1 23.2 88 1.4 E 19 24 10 13 1012.6 - 0.2
24/05:30am 25.1 26.4 23.3 90 1.2 E 22 28 12 15 1012.6 - 0.0
24/05:06am 26.6 28.6 22.9 80 2.5 ENE 17 24 9 13 1012.5 - 0.0
24/05:00am 26.4 28.0 22.9 81 2.4 ENE 19 24 10 13 1012.5 - 0.0
24/04:30am 26.3 28.2 22.1 77 2.8 ENE 15 22 8 12 1012.7 - 0.0
24/04:00am 26.5 28.6 22.5 78 2.7 ENE 15 22 8 12 1012.6 - 0.0
24/03:30am 26.4 28.0 22.2 78 2.8 ENE 17 22 9 12 1012.6 - 0.0
24/03:00am 26.5 28.0 22.0 76 3.0 E 17 24 9 13 1012.6 1012.5 0.0
24/02:30am 26.6 27.3 22.3 77 2.9 ENE 22 30 12 16 1012.8 - 0.0
24/02:00am 26.5 28.2 22.3 78 2.8 ENE 17 24 9 13 1012.8 - 0.0
24/01:30am 26.5 27.9 22.5 78 2.7 ENE 19 26 10 14 1013.1 - 0.0
24/01:00am 26.6 27.9 22.3 77 2.9 ENE 19 24 10 13 1013.6 - 0.0
24/12:30am 26.7 28.0 22.6 78 2.8 ENE 20 26 11 14 1014.0 - 0.0
24/12:00am 26.9 27.9 21.8 73 3.4 ENE 19 26 10 14 1014.4 1014.3 0.0
 
Date/Time
EST
Temp
°C
App
Temp
°C
Dew
Point
Rel
Hum
%
Delta-T
°C
Wind Press
QNH
hPa
Press
MSL
hPa
Rain
since 9 am
mm
Dir
 
Spd
km/h
Gust
km/h
Spd
kts
Gust
kts
23/11:30pm 26.8 27.5 22.3 76 3.0 ENE 22 28 12 15 1014.6 - 0.0
23/11:00pm 26.8 27.5 22.3 76 3.0 ENE 22 28 12 15 1014.7 - 0.0
23/10:30pm 26.7 26.9 21.4 72 3.5 ENE 22 28 12 15 1014.8 - 0.0
23/10:00pm 26.8 27.8 22.2 76 3.1 ENE 20 26 11 14 1014.5 - 0.0
23/09:30pm 26.8 28.1 22.3 76 3.0 ENE 19 28 10 15 1014.4 - 0.0
23/09:00pm 27.0 28.0 22.2 75 3.2 ENE 20 28 11 15 1014.1 1014.0 0.0
23/08:30pm 27.0 28.0 22.2 75 3.2 ENE 20 26 11 14 1013.8 - 0.0
23/08:00pm 27.0 28.2 22.2 75 3.2 ENE 19 24 10 13 1013.3 - 0.0
23/07:30pm 27.0 28.7 22.4 76 3.1 ENE 17 24 9 13 1013.1 - 0.0
23/07:00pm 27.1 27.9 22.4 75 3.2 ENE 22 28 12 15 1012.6 - 0.0
23/06:30pm 27.3 28.3 22.1 73 3.5 NE 20 28 11 15 1012.4 - 0.0
23/06:00pm 27.5 28.1 22.1 72 3.6 ENE 22 30 12 16 1012.2 1012.1 0.0
23/05:30pm 28.2 28.4 22.1 69 4.1 ENE 24 32 13 17 1012.3 - 0.0
23/05:00pm 28.6 27.5 21.7 66 4.6 ENE 30 37 16 20 1012.3 - 0.0
23/04:30pm 29.2 28.6 21.9 64 4.9 ENE 28 35 15 19 1012.2 - 0.0
23/04:00pm 29.2 28.4 21.6 63 5.1 ENE 28 35 15 19 1012.3 - 0.0
23/03:30pm 30.5 29.1 21.1 57 6.3 ENE 30 37 16 20 1012.4 - 0.0
23/03:00pm 30.2 29.0 21.6 60 5.8 ENE 30 35 16 19 1012.6 1012.5 0.0
23/02:30pm 30.2 28.5 21.7 60 5.7 ENE 33 39 18 21 1012.7 - 0.0
23/02:00pm 30.6 28.7 21.4 58 6.2 NE 33 41 18 22 1012.9 - 0.0
23/01:30pm 31.2 29.3 20.9 54 6.9 ENE 32 39 17 21 1013.3 - 0.0

Other Formats:

Comma delimited format used in spreadsheet applications
http://www.bom.gov.au/fwo/IDQ60801/IDQ60801.94294.axf

JavaScript Object Notation format (JSON) in row-major order
http://www.bom.gov.au/fwo/IDQ60801/IDQ60801.94294.json